createdAt,value
2023-01-19T00:00:30.044Z,99.90
2023-01-19T00:02:56.802Z,99.90
2023-01-19T00:05:23.555Z,99.90
2023-01-19T00:07:51.016Z,99.90
2023-01-19T00:10:17.807Z,99.90
2023-01-19T00:12:44.439Z,99.90
2023-01-19T00:15:11.422Z,99.90
2023-01-19T00:17:40.958Z,99.90
2023-01-19T00:20:09.376Z,99.90
2023-01-19T00:22:36.121Z,99.90
2023-01-19T00:25:03.520Z,99.90
2023-01-19T00:27:34.723Z,99.90
2023-01-19T00:30:01.585Z,99.90
2023-01-19T00:32:28.240Z,99.90
2023-01-19T00:34:54.970Z,99.90
2023-01-19T00:37:21.815Z,99.90
2023-01-19T00:39:48.483Z,99.90
2023-01-19T00:42:33.558Z,99.90
2023-01-19T00:45:00.168Z,99.90
2023-01-19T00:47:26.939Z,99.90
2023-01-19T00:49:53.571Z,99.90
2023-01-19T00:52:20.363Z,99.90
2023-01-19T00:54:47.055Z,99.90
2023-01-19T00:57:14.969Z,99.90
2023-01-19T00:59:41.667Z,99.90
2023-01-19T01:02:08.537Z,99.90
2023-01-19T01:04:35.307Z,99.90
2023-01-19T01:07:02.014Z,99.90
2023-01-19T01:09:28.834Z,99.90
2023-01-19T01:11:56.715Z,99.90
2023-01-19T01:14:23.952Z,99.90
2023-01-19T01:16:50.870Z,99.90
2023-01-19T01:19:17.601Z,99.90
2023-01-19T01:21:44.195Z,99.90
2023-01-19T01:24:10.903Z,99.90
2023-01-19T01:26:37.578Z,99.90
2023-01-19T01:29:05.657Z,99.90
2023-01-19T01:31:32.368Z,99.90
2023-01-19T01:33:59.114Z,99.90
2023-01-19T01:36:29.164Z,99.90
2023-01-19T01:38:55.925Z,99.90
2023-01-19T01:41:25.528Z,99.90
2023-01-19T01:43:58.173Z,99.90
2023-01-19T01:46:25.783Z,99.90
2023-01-19T01:48:55.305Z,99.90
2023-01-19T01:51:27.922Z,99.90
2023-01-19T01:54:04.169Z,99.90
2023-01-19T01:56:41.598Z,99.90
2023-01-19T01:59:11.163Z,99.90
2023-01-19T02:01:56.374Z,99.90
2023-01-19T02:04:23.493Z,99.90
2023-01-19T02:07:08.944Z,99.90
2023-01-19T02:09:55.898Z,99.90
2023-01-19T02:12:41.963Z,99.90
2023-01-19T02:15:16.389Z,99.90
2023-01-19T02:17:43.243Z,99.90
2023-01-19T02:20:10.664Z,99.90
2023-01-19T02:22:42.238Z,99.90
2023-01-19T02:25:08.985Z,99.90
2023-01-19T02:27:37.005Z,99.90
2023-01-19T02:30:03.920Z,99.90
2023-01-19T02:32:30.676Z,99.90
2023-01-19T02:34:57.520Z,99.90
2023-01-19T02:37:24.475Z,99.90
2023-01-19T02:39:59.011Z,99.90
2023-01-19T02:42:27.609Z,99.90
2023-01-19T02:44:55.123Z,99.90
2023-01-19T02:47:21.968Z,99.90
2023-01-19T02:49:58.407Z,99.90
2023-01-19T02:52:25.654Z,99.90
2023-01-19T02:55:15.850Z,99.90
2023-01-19T02:58:05.004Z,99.90
2023-01-19T03:00:40.489Z,99.90
2023-01-19T03:03:30.701Z,99.90
2023-01-19T03:06:05.646Z,99.90
2023-01-19T03:08:42.306Z,99.90
2023-01-19T03:11:10.133Z,99.90
2023-01-19T03:13:51.346Z,99.90
2023-01-19T03:16:27.286Z,99.90
2023-01-19T03:19:00.011Z,99.90
2023-01-19T03:21:27.981Z,99.90
2023-01-19T03:23:57.066Z,99.90
2023-01-19T03:26:27.079Z,99.90
2023-01-19T03:28:55.878Z,99.90
2023-01-19T03:31:27.425Z,99.90
2023-01-19T03:33:56.203Z,99.90
2023-01-19T03:36:32.224Z,99.90
2023-01-19T03:39:00.095Z,99.90
2023-01-19T03:41:28.400Z,99.90
2023-01-19T03:43:58.641Z,99.90
2023-01-19T03:46:26.153Z,99.90
2023-01-19T03:48:53.332Z,99.90
2023-01-19T03:51:20.045Z,99.90
2023-01-19T03:53:46.887Z,99.90
2023-01-19T03:56:19.485Z,99.90
2023-01-19T03:58:48.646Z,99.90
2023-01-19T04:01:16.188Z,99.90
2023-01-19T04:03:43.167Z,99.90
2023-01-19T04:06:10.437Z,99.90
2023-01-19T04:08:37.118Z,99.90
2023-01-19T04:11:03.945Z,99.90
2023-01-19T04:13:30.570Z,99.90
2023-01-19T04:16:01.203Z,99.90
2023-01-19T04:18:28.672Z,99.90
2023-01-19T04:20:55.475Z,99.90
2023-01-19T04:23:22.185Z,99.90
2023-01-19T04:25:48.764Z,99.90
2023-01-19T04:28:15.678Z,99.90
2023-01-19T04:30:42.344Z,99.90
2023-01-19T04:33:09.065Z,99.90
2023-01-19T04:35:35.752Z,99.90
2023-01-19T04:38:02.449Z,99.90
2023-01-19T04:40:29.219Z,99.90
2023-01-19T04:42:55.836Z,99.90
2023-01-19T04:45:22.558Z,99.90
2023-01-19T04:47:50.244Z,99.90
2023-01-19T04:50:17.646Z,99.90
2023-01-19T04:52:44.400Z,99.90
2023-01-19T04:55:11.181Z,99.90
2023-01-19T04:57:37.976Z,99.90
2023-01-19T05:00:07.651Z,99.90
2023-01-19T05:02:34.679Z,99.90
2023-01-19T05:05:01.660Z,99.90
2023-01-19T05:07:28.634Z,99.90
2023-01-19T05:09:55.346Z,99.90
2023-01-19T05:12:22.054Z,99.90
2023-01-19T05:14:48.784Z,99.90
2023-01-19T05:17:15.591Z,99.90
2023-01-19T05:19:42.503Z,99.90
2023-01-19T05:22:09.393Z,99.90
2023-01-19T05:24:36.027Z,99.90
2023-01-19T05:27:02.691Z,99.90
2023-01-19T05:29:29.349Z,99.90
2023-01-19T05:31:56.116Z,99.90
2023-01-19T05:34:22.782Z,99.90
2023-01-19T05:36:49.543Z,99.90
2023-01-19T05:39:16.297Z,99.90
2023-01-19T05:41:45.426Z,99.90
2023-01-19T05:44:12.366Z,99.90
2023-01-19T05:46:39.362Z,99.90
2023-01-19T05:49:07.396Z,99.90
2023-01-19T05:51:38.602Z,99.90
2023-01-19T05:54:06.108Z,99.90
2023-01-19T05:56:33.271Z,99.90
2023-01-19T05:59:00.185Z,99.90
2023-01-19T06:01:27.503Z,99.90
2023-01-19T06:03:54.342Z,99.90
2023-01-19T06:06:20.987Z,99.90
2023-01-19T06:08:47.749Z,99.90
2023-01-19T06:11:14.499Z,99.90
2023-01-19T06:13:42.102Z,99.90
2023-01-19T06:16:09.596Z,99.90
2023-01-19T06:18:36.700Z,99.90
2023-01-19T06:21:07.407Z,99.90
2023-01-19T06:23:34.748Z,99.90
2023-01-19T06:26:01.717Z,99.90
2023-01-19T06:28:28.474Z,99.90
2023-01-19T06:30:56.281Z,99.90
2023-01-19T06:33:24.197Z,99.90
2023-01-19T06:35:51.497Z,99.90
2023-01-19T06:38:19.561Z,99.90
2023-01-19T06:40:51.703Z,99.90
2023-01-19T06:43:20.307Z,99.90
2023-01-19T06:45:47.279Z,99.90
2023-01-19T06:48:14.225Z,99.90
2023-01-19T06:50:41.135Z,99.90
2023-01-19T06:53:08.041Z,99.90
2023-01-19T06:55:36.537Z,99.90
2023-01-19T06:58:03.556Z,99.90
2023-01-19T07:00:30.671Z,99.90
2023-01-19T07:02:57.781Z,99.90
2023-01-19T07:05:24.992Z,99.90
2023-01-19T07:07:55.989Z,99.90
2023-01-19T07:10:23.454Z,99.90
2023-01-19T07:12:50.666Z,99.90
2023-01-19T07:15:19.602Z,99.90
2023-01-19T07:17:46.439Z,99.90
2023-01-19T07:20:14.545Z,99.90
2023-01-19T07:22:43.594Z,99.90
2023-01-19T07:25:10.534Z,99.90
2023-01-19T07:27:37.334Z,99.90
2023-01-19T07:30:04.727Z,99.90
2023-01-19T07:32:31.698Z,99.90
2023-01-19T07:34:58.723Z,99.90
2023-01-19T07:37:25.604Z,99.90
2023-01-19T07:39:52.459Z,99.90
2023-01-19T07:42:19.395Z,99.90
2023-01-19T07:44:46.191Z,99.90
2023-01-19T07:47:13.041Z,99.90
2023-01-19T07:49:40.008Z,99.90
2023-01-19T07:52:07.099Z,99.90
2023-01-19T07:54:34.064Z,99.90
2023-01-19T07:57:00.922Z,99.90
2023-01-19T07:59:30.430Z,99.90
2023-01-19T08:01:59.698Z,99.90
2023-01-19T08:04:27.690Z,99.90
2023-01-19T08:06:56.577Z,99.90
2023-01-19T08:09:24.561Z,99.90
2023-01-19T08:11:51.689Z,99.90
2023-01-19T08:14:18.691Z,99.90
2023-01-19T08:16:45.493Z,99.90
2023-01-19T08:19:12.497Z,99.90
2023-01-19T08:21:39.473Z,99.90
2023-01-19T08:24:06.701Z,99.90
2023-01-19T08:26:35.449Z,99.90
2023-01-19T08:29:03.492Z,99.90
2023-01-19T08:31:30.457Z,99.90
2023-01-19T08:33:57.498Z,99.90
2023-01-19T08:36:25.196Z,99.90
2023-01-19T08:38:52.206Z,99.90
2023-01-19T08:41:19.196Z,99.90
2023-01-19T08:43:46.401Z,99.90
2023-01-19T08:46:17.164Z,99.90
2023-01-19T08:48:45.373Z,99.90
2023-01-19T08:51:12.741Z,95.70
2023-01-19T08:53:39.674Z,92.40
2023-01-19T08:56:12.289Z,90.30
2023-01-19T08:58:39.904Z,85.60
2023-01-19T09:01:08.109Z,86.70
2023-01-19T09:03:35.345Z,88.60
2023-01-19T09:06:03.142Z,85.60
2023-01-19T09:08:30.049Z,80.00
2023-01-19T09:10:57.191Z,75.40
2023-01-19T09:13:24.198Z,76.70
2023-01-19T09:15:51.302Z,79.50
2023-01-19T09:18:19.352Z,84.30
2023-01-19T09:20:47.606Z,88.00
2023-01-19T09:23:15.805Z,87.20
2023-01-19T09:25:43.254Z,82.30
2023-01-19T09:28:11.287Z,78.30
2023-01-19T09:30:39.645Z,74.40
2023-01-19T09:33:08.527Z,70.50
2023-01-19T09:35:35.766Z,70.90
2023-01-19T09:38:03.435Z,70.50
2023-01-19T09:40:30.858Z,74.50
2023-01-19T09:43:05.177Z,77.30
2023-01-19T09:45:32.274Z,80.90
2023-01-19T09:48:00.430Z,84.90
2023-01-19T09:50:30.934Z,87.60
2023-01-19T09:53:02.489Z,89.90
2023-01-19T09:55:29.657Z,91.30
2023-01-19T09:57:56.579Z,91.40
2023-01-19T10:00:24.628Z,92.10
2023-01-19T10:02:53.255Z,92.20
2023-01-19T10:05:22.838Z,90.80
2023-01-19T10:08:03.832Z,90.20
2023-01-19T10:10:32.201Z,90.20
2023-01-19T10:13:17.900Z,89.70
2023-01-19T10:16:01.269Z,90.30
2023-01-19T10:18:48.000Z,91.40
2023-01-19T10:21:17.840Z,90.30
2023-01-19T10:23:52.407Z,89.50
2023-01-19T10:26:45.289Z,89.90
2023-01-19T10:29:26.468Z,90.20
2023-01-19T10:31:58.240Z,91.60
2023-01-19T10:34:25.215Z,91.60
2023-01-19T10:36:56.473Z,92.10
2023-01-19T10:39:23.480Z,91.80
2023-01-19T10:41:51.900Z,91.80
2023-01-19T10:44:25.394Z,91.00
2023-01-19T10:46:52.952Z,90.70
2023-01-19T10:49:25.921Z,91.60
2023-01-19T10:51:52.899Z,92.20
2023-01-19T10:54:20.985Z,92.10
2023-01-19T10:56:55.495Z,91.30
2023-01-19T10:59:36.638Z,90.60
2023-01-19T11:02:21.055Z,90.20
2023-01-19T11:04:53.204Z,90.10
2023-01-19T11:07:21.590Z,90.00
2023-01-19T11:09:48.991Z,90.50
2023-01-19T11:12:20.752Z,91.00
2023-01-19T11:14:50.620Z,90.60
2023-01-19T11:17:22.620Z,90.60
2023-01-19T11:19:57.247Z,90.90
2023-01-19T11:22:27.027Z,91.80
2023-01-19T11:24:57.120Z,92.10
2023-01-19T11:27:24.211Z,92.20
2023-01-19T11:29:57.359Z,91.30
2023-01-19T11:32:27.265Z,91.20
2023-01-19T11:34:54.219Z,92.40
2023-01-19T11:37:21.011Z,92.70
2023-01-19T11:39:49.499Z,93.30
2023-01-19T11:42:16.959Z,93.60
2023-01-19T11:44:51.850Z,93.50
2023-01-19T11:47:30.631Z,93.80
2023-01-19T11:50:06.597Z,94.10
2023-01-19T11:52:40.771Z,94.30
2023-01-19T11:55:11.377Z,94.40
2023-01-19T11:57:39.374Z,94.90
2023-01-19T12:00:19.503Z,94.70
2023-01-19T12:02:47.882Z,95.40
2023-01-19T12:05:16.856Z,94.60
2023-01-19T12:07:44.223Z,94.90
2023-01-19T12:10:23.243Z,95.40
2023-01-19T12:12:51.050Z,95.60
2023-01-19T12:15:30.048Z,95.40
2023-01-19T12:17:58.765Z,96.30
2023-01-19T12:20:25.627Z,96.50
2023-01-19T12:23:00.970Z,96.70
2023-01-19T12:25:48.099Z,97.10
2023-01-19T12:28:16.978Z,96.80
2023-01-19T12:30:43.984Z,96.80
2023-01-19T12:33:35.421Z,96.90
2023-01-19T12:36:08.914Z,96.40
2023-01-19T12:38:42.156Z,96.70
2023-01-19T12:41:16.768Z,95.90
2023-01-19T12:43:43.579Z,97.10
2023-01-19T12:46:21.140Z,96.50
2023-01-19T12:48:47.986Z,97.30
2023-01-19T12:51:25.484Z,96.80
2023-01-19T12:53:54.971Z,97.30
2023-01-19T12:56:28.530Z,97.50
2023-01-19T12:58:55.412Z,98.00
2023-01-19T13:01:25.078Z,97.40
2023-01-19T13:04:24.419Z,97.60
2023-01-19T13:06:54.204Z,97.30
2023-01-19T13:09:30.792Z,97.00
2023-01-19T13:12:16.398Z,97.20
2023-01-19T13:14:43.539Z,97.10
2023-01-19T13:17:19.535Z,96.60
2023-01-19T13:19:50.592Z,96.90
2023-01-19T13:22:36.223Z,97.00
2023-01-19T13:25:13.470Z,96.90
2023-01-19T13:27:40.817Z,97.10
2023-01-19T13:30:17.790Z,97.40
2023-01-19T13:32:44.576Z,96.50
2023-01-19T13:35:17.400Z,97.10
2023-01-19T13:37:44.638Z,97.20
2023-01-19T13:40:22.595Z,97.30
2023-01-19T13:42:49.720Z,97.40
2023-01-19T13:45:24.938Z,97.50
2023-01-19T13:47:52.513Z,97.70
2023-01-19T13:50:23.459Z,98.30
2023-01-19T13:52:51.462Z,98.10
2023-01-19T13:55:20.561Z,98.30
2023-01-19T13:57:48.262Z,98.50
2023-01-19T14:00:21.518Z,98.60
2023-01-19T14:02:55.932Z,98.80
2023-01-19T14:05:37.124Z,99.00
2023-01-19T14:08:13.248Z,98.80
2023-01-19T14:10:47.496Z,99.00
2023-01-19T14:13:20.744Z,98.80
2023-01-19T14:15:54.163Z,98.80
2023-01-19T14:18:26.158Z,99.00
2023-01-19T14:20:54.593Z,98.90
2023-01-19T14:23:50.448Z,99.10
2023-01-19T14:26:35.840Z,99.40
2023-01-19T14:29:14.843Z,99.70
2023-01-19T14:31:46.359Z,99.50
2023-01-19T14:34:31.998Z,99.80
2023-01-19T14:36:59.439Z,99.70
2023-01-19T14:39:27.780Z,99.50
2023-01-19T14:41:55.369Z,99.70
2023-01-19T14:44:33.993Z,99.80
2023-01-19T14:47:01.371Z,99.70
2023-01-19T14:49:28.296Z,99.60
2023-01-19T14:51:56.155Z,99.70
2023-01-19T14:54:34.724Z,99.60
2023-01-19T14:57:01.601Z,99.80
2023-01-19T14:59:28.525Z,99.90
2023-01-19T15:01:55.699Z,99.90
2023-01-19T15:04:23.528Z,99.90
2023-01-19T15:06:50.487Z,99.90
2023-01-19T15:09:17.608Z,99.90
2023-01-19T15:11:47.103Z,99.90
2023-01-19T15:14:14.812Z,99.90
2023-01-19T15:16:42.374Z,99.90
2023-01-19T15:19:18.665Z,99.90
2023-01-19T15:21:46.924Z,99.90
2023-01-19T15:24:14.899Z,99.90
2023-01-19T15:26:43.152Z,99.90
2023-01-19T15:29:12.657Z,99.90
2023-01-19T15:31:39.901Z,99.90
2023-01-19T15:34:09.009Z,99.90
2023-01-19T15:36:35.769Z,99.90
2023-01-19T15:39:02.721Z,99.90
2023-01-19T15:41:30.572Z,99.90
2023-01-19T15:43:57.781Z,99.90
2023-01-19T15:46:25.848Z,99.90
2023-01-19T15:48:53.004Z,99.90
2023-01-19T15:51:21.450Z,99.90
2023-01-19T15:53:48.933Z,99.90
2023-01-19T15:56:16.560Z,99.90
2023-01-19T15:58:43.612Z,99.90
2023-01-19T16:01:12.558Z,99.90
2023-01-19T16:03:39.655Z,99.90
2023-01-19T16:06:06.909Z,99.90
2023-01-19T16:08:33.826Z,99.90
2023-01-19T16:11:07.459Z,99.90
2023-01-19T16:13:34.535Z,99.90
2023-01-19T16:16:02.450Z,99.90
2023-01-19T16:18:29.386Z,99.90
2023-01-19T16:20:56.678Z,99.90
2023-01-19T16:23:23.476Z,99.90
2023-01-19T16:26:00.396Z,99.90
2023-01-19T16:28:27.824Z,99.90
2023-01-19T16:30:54.798Z,99.90
2023-01-19T16:33:21.773Z,99.90
2023-01-19T16:35:48.753Z,99.90
2023-01-19T16:38:15.496Z,99.90
2023-01-19T16:40:46.215Z,99.90
2023-01-19T16:43:13.496Z,99.90
2023-01-19T16:46:00.658Z,99.90
2023-01-19T16:48:27.668Z,99.90
2023-01-19T16:50:58.438Z,99.90
2023-01-19T16:53:25.261Z,99.90
2023-01-19T16:55:53.262Z,99.90
2023-01-19T16:58:20.293Z,99.90
2023-01-19T17:00:47.252Z,99.90
2023-01-19T17:03:14.286Z,99.90
2023-01-19T17:05:41.131Z,99.90
2023-01-19T17:08:08.117Z,99.90
2023-01-19T17:10:40.156Z,99.90
2023-01-19T17:13:07.128Z,99.90
2023-01-19T17:15:34.076Z,99.90
2023-01-19T17:18:01.109Z,99.90
2023-01-19T17:20:27.833Z,99.90
2023-01-19T17:22:56.215Z,99.90
2023-01-19T17:25:23.546Z,99.90
2023-01-19T17:27:50.428Z,99.90
2023-01-19T17:30:17.431Z,99.90
2023-01-19T17:32:44.427Z,99.90
2023-01-19T17:35:11.629Z,99.90
2023-01-19T17:37:38.431Z,99.90
2023-01-19T17:40:05.659Z,99.90
2023-01-19T17:42:32.583Z,99.90
2023-01-19T17:44:59.451Z,99.90
2023-01-19T17:47:26.388Z,99.90
2023-01-19T17:49:53.256Z,99.90
2023-01-19T17:52:20.128Z,99.90
2023-01-19T17:54:46.834Z,99.90
2023-01-19T17:57:13.672Z,99.90
2023-01-19T17:59:43.801Z,99.90
2023-01-19T18:02:10.730Z,99.90
2023-01-19T18:04:38.323Z,99.90
2023-01-19T18:07:05.449Z,99.90
2023-01-19T18:09:32.308Z,99.90
2023-01-19T18:11:59.201Z,99.90
2023-01-19T18:14:26.109Z,99.90
2023-01-19T18:16:53.006Z,99.90
2023-01-19T18:19:22.345Z,99.90
2023-01-19T18:21:49.140Z,99.90
2023-01-19T18:24:15.948Z,99.90
2023-01-19T18:26:42.836Z,99.90
2023-01-19T18:29:09.663Z,99.90
2023-01-19T18:31:36.530Z,99.90
2023-01-19T18:34:03.273Z,99.90
2023-01-19T18:36:32.121Z,99.90
2023-01-19T18:38:58.987Z,99.90
2023-01-19T18:41:25.874Z,99.90
2023-01-19T18:43:56.500Z,99.90
2023-01-19T18:46:23.425Z,99.90
2023-01-19T18:48:50.217Z,99.90
2023-01-19T18:51:17.422Z,99.90
2023-01-19T18:53:45.088Z,99.90
2023-01-19T18:56:13.001Z,99.90
2023-01-19T18:58:39.881Z,99.90
2023-01-19T19:01:17.621Z,99.90
2023-01-19T19:03:44.917Z,99.90
2023-01-19T19:06:11.896Z,99.90
2023-01-19T19:08:38.794Z,99.90
2023-01-19T19:11:08.762Z,99.90
2023-01-19T19:13:35.541Z,99.90
2023-01-19T19:16:04.249Z,99.90
2023-01-19T19:18:31.514Z,99.90
2023-01-19T19:20:58.777Z,99.90
2023-01-19T19:23:25.681Z,99.90
2023-01-19T19:25:52.462Z,99.90
2023-01-19T19:28:19.328Z,99.90
2023-01-19T19:30:48.144Z,99.90
2023-01-19T19:33:14.967Z,99.90
2023-01-19T19:35:41.799Z,99.90
2023-01-19T19:38:08.661Z,99.90
2023-01-19T19:40:35.783Z,99.90
2023-01-19T19:43:02.577Z,99.90
2023-01-19T19:45:29.515Z,99.90
2023-01-19T19:47:57.512Z,99.90
2023-01-19T19:50:24.318Z,99.90
2023-01-19T19:52:51.045Z,99.90
2023-01-19T19:55:18.047Z,99.90
2023-01-19T19:57:45.068Z,99.90
2023-01-19T20:00:13.753Z,99.90
2023-01-19T20:02:40.917Z,99.90
2023-01-19T20:05:08.373Z,99.90
2023-01-19T20:07:35.346Z,99.90
2023-01-19T20:10:02.382Z,99.90
2023-01-19T20:12:29.299Z,99.90
2023-01-19T20:14:56.453Z,99.90
2023-01-19T20:17:25.050Z,99.90
2023-01-19T20:19:52.146Z,99.90
2023-01-19T20:22:18.893Z,99.90
2023-01-19T20:24:45.873Z,99.90
2023-01-19T20:27:12.686Z,99.90
2023-01-19T20:29:39.561Z,99.90
2023-01-19T20:32:06.522Z,99.90
2023-01-19T20:34:35.724Z,99.90
2023-01-19T20:37:04.835Z,99.90
2023-01-19T20:39:33.558Z,99.90
2023-01-19T20:42:01.009Z,99.90
2023-01-19T20:44:28.441Z,99.90
2023-01-19T20:46:56.041Z,99.90
2023-01-19T20:49:23.147Z,99.90
2023-01-19T20:51:52.426Z,99.90
2023-01-19T20:54:20.859Z,99.90
2023-01-19T20:56:48.200Z,99.90
2023-01-19T20:59:14.950Z,99.90
2023-01-19T21:01:42.146Z,99.90
2023-01-19T21:04:09.794Z,99.90
2023-01-19T21:06:37.017Z,99.90
2023-01-19T21:09:04.504Z,99.90
2023-01-19T21:11:31.578Z,99.90
2023-01-19T21:13:58.537Z,99.90
2023-01-19T21:16:26.680Z,99.90
2023-01-19T21:18:54.332Z,99.90
2023-01-19T21:21:30.401Z,99.90
2023-01-19T21:24:01.630Z,99.90
2023-01-19T21:26:31.699Z,99.90
2023-01-19T21:28:59.121Z,99.90
2023-01-19T21:31:27.699Z,99.90
2023-01-19T21:33:55.304Z,99.90
2023-01-19T21:36:22.597Z,99.90
2023-01-19T21:38:50.573Z,99.90
2023-01-19T21:41:17.443Z,99.90
2023-01-19T21:43:44.184Z,99.90
2023-01-19T21:46:18.274Z,99.90
2023-01-19T21:48:45.933Z,99.90
2023-01-19T21:51:12.999Z,99.90
2023-01-19T21:53:40.059Z,99.90
2023-01-19T21:56:07.918Z,99.90
2023-01-19T21:58:34.876Z,99.90
2023-01-19T22:01:02.290Z,99.90
2023-01-19T22:03:29.336Z,99.90
2023-01-19T22:05:56.173Z,99.90
2023-01-19T22:08:23.869Z,99.90
2023-01-19T22:10:50.802Z,99.90
2023-01-19T22:13:17.526Z,99.90
2023-01-19T22:15:44.231Z,99.90
2023-01-19T22:18:10.972Z,99.90
2023-01-19T22:20:37.854Z,99.90
2023-01-19T22:23:04.727Z,99.90
2023-01-19T22:25:32.397Z,99.90
2023-01-19T22:27:59.306Z,99.90
2023-01-19T22:30:26.279Z,99.90
2023-01-19T22:32:53.299Z,99.90
2023-01-19T22:35:21.259Z,99.90
2023-01-19T22:37:48.209Z,99.90
2023-01-19T22:40:15.107Z,99.90
2023-01-19T22:42:44.908Z,99.90
2023-01-19T22:45:11.958Z,99.90
2023-01-19T22:47:38.992Z,99.90
2023-01-19T22:50:05.915Z,99.90
2023-01-19T22:52:32.617Z,99.90
2023-01-19T22:54:59.974Z,99.90
2023-01-19T22:57:26.593Z,99.90
2023-01-19T22:59:53.330Z,99.90
2023-01-19T23:02:21.099Z,99.90
2023-01-19T23:04:48.008Z,99.90
2023-01-19T23:07:14.750Z,99.90
2023-01-19T23:09:41.538Z,99.90
2023-01-19T23:12:08.436Z,99.90
2023-01-19T23:14:36.180Z,99.90
2023-01-19T23:17:02.893Z,99.90
2023-01-19T23:19:29.678Z,99.90
2023-01-19T23:21:56.522Z,99.90
2023-01-19T23:24:23.150Z,99.90
2023-01-19T23:26:50.343Z,99.90
2023-01-19T23:29:17.961Z,99.90
2023-01-19T23:31:46.436Z,99.90
2023-01-19T23:34:13.711Z,99.90
2023-01-19T23:36:41.046Z,99.90
2023-01-19T23:39:11.901Z,99.90
2023-01-19T23:41:38.875Z,99.90
2023-01-19T23:44:05.624Z,99.90
2023-01-19T23:46:32.377Z,99.90
2023-01-19T23:48:59.082Z,99.90
2023-01-19T23:51:27.147Z,99.90
2023-01-19T23:53:54.257Z,99.90
2023-01-19T23:56:22.990Z,99.90
2023-01-19T23:58:54.683Z,99.90
